sensor_id;sensor_type;location;lat;lon;timestamp;temperature;humidity
1602;DHT22;794;48.592;9.634;2023-02-15T00:01:46;1.10;1.00
1602;DHT22;794;48.592;9.634;2023-02-15T00:04:15;1.30;1.00
1602;DHT22;794;48.592;9.634;2023-02-15T00:06:43;1.10;1.00
1602;DHT22;794;48.592;9.634;2023-02-15T00:09:12;0.70;1.00
1602;DHT22;794;48.592;9.634;2023-02-15T00:11:39;0.50;1.00
1602;DHT22;794;48.592;9.634;2023-02-15T00:14:09;-0.10;1.00
1602;DHT22;794;48.592;9.634;2023-02-15T00:16:37;0.80;1.00
1602;DHT22;794;48.592;9.634;2023-02-15T00:19:04;-0.10;1.00
1602;DHT22;794;48.592;9.634;2023-02-15T00:21:32;1.40;1.00
1602;DHT22;794;48.592;9.634;2023-02-15T00:24:01;-1.20;1.00
1602;DHT22;794;48.592;9.634;2023-02-15T00:26:30;-1.10;1.00
1602;DHT22;794;48.592;9.634;2023-02-15T00:28:57;-0.80;1.00
1602;DHT22;794;48.592;9.634;2023-02-15T00:31:25;-0.90;1.00
1602;DHT22;794;48.592;9.634;2023-02-15T00:33:52;-1.20;1.00
1602;DHT22;794;48.592;9.634;2023-02-15T00:36:19;-1.20;1.00
1602;DHT22;794;48.592;9.634;2023-02-15T00:38:46;-0.90;1.00
1602;DHT22;794;48.592;9.634;2023-02-15T00:41:13;0.70;1.00
1602;DHT22;794;48.592;9.634;2023-02-15T00:43:42;-0.80;1.00
1602;DHT22;794;48.592;9.634;2023-02-15T00:46:09;-1.20;1.00
1602;DHT22;794;48.592;9.634;2023-02-15T00:48:35;0.20;1.00
1602;DHT22;794;48.592;9.634;2023-02-15T00:51:03;-0.50;1.00
1602;DHT22;794;48.592;9.634;2023-02-15T00:53:30;-1.20;1.00
1602;DHT22;794;48.592;9.634;2023-02-15T00:55:57;1.30;1.00
1602;DHT22;794;48.592;9.634;2023-02-15T00:58:25;-0.30;1.00
1602;DHT22;794;48.592;9.634;2023-02-15T01:00:53;-0.50;1.00
1602;DHT22;794;48.592;9.634;2023-02-15T01:03:21;-0.80;1.00
1602;DHT22;794;48.592;9.634;2023-02-15T01:05:48;0.90;1.00
1602;DHT22;794;48.592;9.634;2023-02-15T01:08:16;1.00;1.00
1602;DHT22;794;48.592;9.634;2023-02-15T01:10:43;-1.20;1.00
1602;DHT22;794;48.592;9.634;2023-02-15T01:13:13;-1.40;1.00
1602;DHT22;794;48.592;9.634;2023-02-15T01:15:40;0.50;1.00
1602;DHT22;794;48.592;9.634;2023-02-15T01:18:09;1.40;1.00
1602;DHT22;794;48.592;9.634;2023-02-15T01:20:38;-1.20;1.00
1602;DHT22;794;48.592;9.634;2023-02-15T01:23:07;-1.40;1.00
1602;DHT22;794;48.592;9.634;2023-02-15T01:25:35;-1.40;1.00
1602;DHT22;794;48.592;9.634;2023-02-15T01:28:03;-1.50;1.00
1602;DHT22;794;48.592;9.634;2023-02-15T01:30:30;-1.30;1.00
1602;DHT22;794;48.592;9.634;2023-02-15T01:32:57;1.10;1.00
1602;DHT22;794;48.592;9.634;2023-02-15T01:35:25;-1.90;1.00
1602;DHT22;794;48.592;9.634;2023-02-15T01:37:52;1.00;1.00
1602;DHT22;794;48.592;9.634;2023-02-15T01:40:19;1.00;1.00
1602;DHT22;794;48.592;9.634;2023-02-15T01:42:50;-1.60;1.00
1602;DHT22;794;48.592;9.634;2023-02-15T01:45:24;-0.90;1.00
1602;DHT22;794;48.592;9.634;2023-02-15T01:47:56;-1.20;1.00
1602;DHT22;794;48.592;9.634;2023-02-15T01:50:29;1.20;1.00
1602;DHT22;794;48.592;9.634;2023-02-15T01:53:01;-0.90;1.00
1602;DHT22;794;48.592;9.634;2023-02-15T01:55:33;0.70;1.00
1602;DHT22;794;48.592;9.634;2023-02-15T01:58:00;-1.20;1.00
1602;DHT22;794;48.592;9.634;2023-02-15T02:00:28;-1.30;1.00
1602;DHT22;794;48.592;9.634;2023-02-15T02:02:56;1.10;1.00
1602;DHT22;794;48.592;9.634;2023-02-15T02:05:25;-1.30;1.00
1602;DHT22;794;48.592;9.634;2023-02-15T02:07:56;-1.00;1.00
1602;DHT22;794;48.592;9.634;2023-02-15T02:10:24;-1.20;1.00
1602;DHT22;794;48.592;9.634;2023-02-15T02:12:54;-1.40;1.00
1602;DHT22;794;48.592;9.634;2023-02-15T02:15:26;-1.50;1.00
1602;DHT22;794;48.592;9.634;2023-02-15T02:18:04;1.10;1.00
1602;DHT22;794;48.592;9.634;2023-02-15T02:23:51;-1.10;1.00
1602;DHT22;794;48.592;9.634;2023-02-15T02:33:07;-1.60;1.00
1602;DHT22;794;48.592;9.634;2023-02-15T02:35:41;-1.60;1.00
1602;DHT22;794;48.592;9.634;2023-02-15T02:38:16;-1.40;1.00
1602;DHT22;794;48.592;9.634;2023-02-15T02:40:55;-0.10;1.00
1602;DHT22;794;48.592;9.634;2023-02-15T02:43:28;0.20;1.00
1602;DHT22;794;48.592;9.634;2023-02-15T02:45:58;1.10;1.00
1602;DHT22;794;48.592;9.634;2023-02-15T02:48:29;-1.20;1.00
1602;DHT22;794;48.592;9.634;2023-02-15T02:50:57;-1.60;1.00
1602;DHT22;794;48.592;9.634;2023-02-15T02:53:24;0.60;1.00
1602;DHT22;794;48.592;9.634;2023-02-15T02:55:55;-1.60;1.00
1602;DHT22;794;48.592;9.634;2023-02-15T02:58:25;-1.70;1.00
1602;DHT22;794;48.592;9.634;2023-02-15T03:00:56;-1.50;1.00
1602;DHT22;794;48.592;9.634;2023-02-15T03:03:28;-3.80;1.00
1602;DHT22;794;48.592;9.634;2023-02-15T03:05:59;-1.70;1.00
1602;DHT22;794;48.592;9.634;2023-02-15T03:08:31;1.10;1.00
1602;DHT22;794;48.592;9.634;2023-02-15T03:11:00;-1.50;1.00
1602;DHT22;794;48.592;9.634;2023-02-15T03:13:28;-1.50;1.00
1602;DHT22;794;48.592;9.634;2023-02-15T03:15:56;-0.70;1.00
1602;DHT22;794;48.592;9.634;2023-02-15T03:18:45;0.00;1.00
1602;DHT22;794;48.592;9.634;2023-02-15T03:21:20;0.50;1.00
1602;DHT22;794;48.592;9.634;2023-02-15T03:23:51;0.40;1.00
1602;DHT22;794;48.592;9.634;2023-02-15T03:26:21;-1.70;1.00
1602;DHT22;794;48.592;9.634;2023-02-15T03:28:53;0.10;1.00
1602;DHT22;794;48.592;9.634;2023-02-15T03:31:26;-1.70;1.00
1602;DHT22;794;48.592;9.634;2023-02-15T03:34:01;-1.70;1.00
1602;DHT22;794;48.592;9.634;2023-02-15T03:36:33;-1.80;1.00
1602;DHT22;794;48.592;9.634;2023-02-15T03:39:07;-1.80;1.00
1602;DHT22;794;48.592;9.634;2023-02-15T03:41:40;-1.50;1.00
1602;DHT22;794;48.592;9.634;2023-02-15T03:44:13;-2.00;1.00
1602;DHT22;794;48.592;9.634;2023-02-15T03:46:47;0.30;1.00
1602;DHT22;794;48.592;9.634;2023-02-15T03:49:21;-1.20;1.00
1602;DHT22;794;48.592;9.634;2023-02-15T03:51:51;-0.70;1.00
1602;DHT22;794;48.592;9.634;2023-02-15T03:54:22;-0.20;1.00
1602;DHT22;794;48.592;9.634;2023-02-15T03:57:11;-1.90;1.00
1602;DHT22;794;48.592;9.634;2023-02-15T03:59:56;-1.60;1.00
1602;DHT22;794;48.592;9.634;2023-02-15T04:02:47;-2.10;1.00
1602;DHT22;794;48.592;9.634;2023-02-15T04:05:18;-2.00;1.00
1602;DHT22;794;48.592;9.634;2023-02-15T04:07:45;-1.90;1.00
1602;DHT22;794;48.592;9.634;2023-02-15T04:10:12;-0.20;1.00
1602;DHT22;794;48.592;9.634;2023-02-15T04:12:57;-2.00;1.00
1602;DHT22;794;48.592;9.634;2023-02-15T04:15:24;-2.10;1.00
1602;DHT22;794;48.592;9.634;2023-02-15T04:18:08;-2.10;1.00
1602;DHT22;794;48.592;9.634;2023-02-15T04:20:36;-1.50;1.00
1602;DHT22;794;48.592;9.634;2023-02-15T04:23:20;-1.90;1.00
1602;DHT22;794;48.592;9.634;2023-02-15T04:26:05;0.00;1.00
1602;DHT22;794;48.592;9.634;2023-02-15T04:28:32;0.10;1.00
1602;DHT22;794;48.592;9.634;2023-02-15T04:30:59;-2.30;1.00
1602;DHT22;794;48.592;9.634;2023-02-15T04:33:26;-0.20;1.00
1602;DHT22;794;48.592;9.634;2023-02-15T04:35:54;-1.20;1.00
1602;DHT22;794;48.592;9.634;2023-02-15T04:38:21;-1.00;1.00
1602;DHT22;794;48.592;9.634;2023-02-15T04:40:50;-0.70;1.00
1602;DHT22;794;48.592;9.634;2023-02-15T04:43:17;-2.00;1.00
1602;DHT22;794;48.592;9.634;2023-02-15T04:45:48;0.30;1.00
1602;DHT22;794;48.592;9.634;2023-02-15T04:48:16;0.10;1.00
1602;DHT22;794;48.592;9.634;2023-02-15T04:50:44;-2.00;1.00
1602;DHT22;794;48.592;9.634;2023-02-15T04:53:12;0.20;1.00
1602;DHT22;794;48.592;9.634;2023-02-15T04:55:39;-0.50;1.00
1602;DHT22;794;48.592;9.634;2023-02-15T04:58:06;-0.10;1.00
1602;DHT22;794;48.592;9.634;2023-02-15T05:00:33;-2.20;1.00
1602;DHT22;794;48.592;9.634;2023-02-15T05:03:00;-2.00;1.00
1602;DHT22;794;48.592;9.634;2023-02-15T05:05:27;-1.90;1.00
1602;DHT22;794;48.592;9.634;2023-02-15T05:07:54;-1.40;1.00
1602;DHT22;794;48.592;9.634;2023-02-15T05:10:22;-2.10;1.00
1602;DHT22;794;48.592;9.634;2023-02-15T05:12:49;-2.20;1.00
1602;DHT22;794;48.592;9.634;2023-02-15T05:15:16;-1.20;1.00
1602;DHT22;794;48.592;9.634;2023-02-15T05:17:43;0.00;1.00
1602;DHT22;794;48.592;9.634;2023-02-15T05:20:10;-2.10;1.00
1602;DHT22;794;48.592;9.634;2023-02-15T05:22:37;-2.30;1.00
1602;DHT22;794;48.592;9.634;2023-02-15T05:25:06;-2.10;1.00
1602;DHT22;794;48.592;9.634;2023-02-15T05:27:52;-2.00;1.00
1602;DHT22;794;48.592;9.634;2023-02-15T05:30:36;-2.00;1.00
1602;DHT22;794;48.592;9.634;2023-02-15T05:33:05;-2.30;1.00
1602;DHT22;794;48.592;9.634;2023-02-15T05:35:32;-2.50;1.00
1602;DHT22;794;48.592;9.634;2023-02-15T05:38:00;-2.40;1.00
1602;DHT22;794;48.592;9.634;2023-02-15T05:40:27;-0.50;1.00
1602;DHT22;794;48.592;9.634;2023-02-15T05:42:56;-2.40;1.00
1602;DHT22;794;48.592;9.634;2023-02-15T05:45:23;-2.60;1.00
1602;DHT22;794;48.592;9.634;2023-02-15T05:47:50;-2.30;1.00
1602;DHT22;794;48.592;9.634;2023-02-15T05:50:17;-0.50;1.00
1602;DHT22;794;48.592;9.634;2023-02-15T05:52:44;-2.40;1.00
1602;DHT22;794;48.592;9.634;2023-02-15T05:55:11;-2.30;1.00
1602;DHT22;794;48.592;9.634;2023-02-15T05:57:38;-1.80;1.00
1602;DHT22;794;48.592;9.634;2023-02-15T06:00:08;0.10;1.00
1602;DHT22;794;48.592;9.634;2023-02-15T06:02:36;-2.20;1.00
1602;DHT22;794;48.592;9.634;2023-02-15T06:05:04;-2.20;1.00
1602;DHT22;794;48.592;9.634;2023-02-15T06:07:31;-2.20;1.00
1602;DHT22;794;48.592;9.634;2023-02-15T06:09:58;-0.60;1.00
1602;DHT22;794;48.592;9.634;2023-02-15T06:12:25;-2.40;1.00
1602;DHT22;794;48.592;9.634;2023-02-15T06:14:52;-0.10;1.00
1602;DHT22;794;48.592;9.634;2023-02-15T06:17:20;-1.90;1.00
1602;DHT22;794;48.592;9.634;2023-02-15T06:19:47;-2.00;1.00
1602;DHT22;794;48.592;9.634;2023-02-15T06:22:14;-2.20;1.00
1602;DHT22;794;48.592;9.634;2023-02-15T06:24:41;-2.20;1.00
1602;DHT22;794;48.592;9.634;2023-02-15T06:27:09;-2.40;1.00
1602;DHT22;794;48.592;9.634;2023-02-15T06:29:36;-2.30;1.00
1602;DHT22;794;48.592;9.634;2023-02-15T06:32:03;-2.40;1.00
1602;DHT22;794;48.592;9.634;2023-02-15T06:34:32;-2.00;1.00
1602;DHT22;794;48.592;9.634;2023-02-15T06:36:58;-0.70;1.00
1602;DHT22;794;48.592;9.634;2023-02-15T06:39:25;-0.20;1.00
1602;DHT22;794;48.592;9.634;2023-02-15T06:41:53;-2.30;1.00
1602;DHT22;794;48.592;9.634;2023-02-15T06:44:19;-0.30;1.00
1602;DHT22;794;48.592;9.634;2023-02-15T06:46:46;0.00;1.00
1602;DHT22;794;48.592;9.634;2023-02-15T06:49:13;-2.00;1.00
1602;DHT22;794;48.592;9.634;2023-02-15T06:51:42;-2.00;1.00
1602;DHT22;794;48.592;9.634;2023-02-15T06:54:08;0.20;1.00
1602;DHT22;794;48.592;9.634;2023-02-15T06:56:35;-1.60;1.00
1602;DHT22;794;48.592;9.634;2023-02-15T06:59:02;-0.40;1.00
1602;DHT22;794;48.592;9.634;2023-02-15T07:01:29;-1.80;1.00
1602;DHT22;794;48.592;9.634;2023-02-15T07:03:56;-1.30;1.00
1602;DHT22;794;48.592;9.634;2023-02-15T07:06:23;0.10;1.00
1602;DHT22;794;48.592;9.634;2023-02-15T07:08:51;-1.80;1.00
1602;DHT22;794;48.592;9.634;2023-02-15T07:11:18;-1.10;1.00
1602;DHT22;794;48.592;9.634;2023-02-15T09:51:46;9.50;1.00
1602;DHT22;794;48.592;9.634;2023-02-15T09:54:25;10.20;1.00
1602;DHT22;794;48.592;9.634;2023-02-15T09:57:00;10.20;1.00
1602;DHT22;794;48.592;9.634;2023-02-15T09:59:35;10.10;1.00
1602;DHT22;794;48.592;9.634;2023-02-15T10:02:20;10.40;1.00
1602;DHT22;794;48.592;9.634;2023-02-15T10:05:01;10.20;1.00
1602;DHT22;794;48.592;9.634;2023-02-15T10:07:49;10.00;1.00
1602;DHT22;794;48.592;9.634;2023-02-15T10:10:25;10.00;1.00
1602;DHT22;794;48.592;9.634;2023-02-15T10:13:18;10.30;1.00
1602;DHT22;794;48.592;9.634;2023-02-15T10:15:53;10.30;1.00
1602;DHT22;794;48.592;9.634;2023-02-15T10:18:35;10.80;1.00
1602;DHT22;794;48.592;9.634;2023-02-15T10:21:09;11.40;1.00
1602;DHT22;794;48.592;9.634;2023-02-15T10:23:51;11.70;1.00
1602;DHT22;794;48.592;9.634;2023-02-15T10:26:30;12.30;1.00
1602;DHT22;794;48.592;9.634;2023-02-15T10:29:03;12.90;1.00
1602;DHT22;794;48.592;9.634;2023-02-15T10:31:39;13.00;1.00
1602;DHT22;794;48.592;9.634;2023-02-15T10:34:15;12.90;1.00
1602;DHT22;794;48.592;9.634;2023-02-15T10:37:14;12.90;1.00
1602;DHT22;794;48.592;9.634;2023-02-15T10:39:52;13.30;1.00
1602;DHT22;794;48.592;9.634;2023-02-15T10:42:30;13.50;1.00
1602;DHT22;794;48.592;9.634;2023-02-15T10:45:19;13.50;1.00
1602;DHT22;794;48.592;9.634;2023-02-15T10:48:22;13.60;1.00
1602;DHT22;794;48.592;9.634;2023-02-15T10:50:56;13.80;1.00
1602;DHT22;794;48.592;9.634;2023-02-15T10:53:42;13.90;1.00
1602;DHT22;794;48.592;9.634;2023-02-15T10:56:19;12.80;1.00
1602;DHT22;794;48.592;9.634;2023-02-15T10:59:01;14.20;1.00
1602;DHT22;794;48.592;9.634;2023-02-15T11:01:34;12.50;1.00
1602;DHT22;794;48.592;9.634;2023-02-15T11:04:15;14.40;1.00
1602;DHT22;794;48.592;9.634;2023-02-15T11:06:48;14.50;1.00
1602;DHT22;794;48.592;9.634;2023-02-15T11:09:37;14.70;1.00
1602;DHT22;794;48.592;9.634;2023-02-15T11:12:11;14.60;1.00
1602;DHT22;794;48.592;9.634;2023-02-15T11:14:44;14.80;1.00
1602;DHT22;794;48.592;9.634;2023-02-15T11:17:17;14.60;1.00
1602;DHT22;794;48.592;9.634;2023-02-15T11:19:51;14.70;1.00
1602;DHT22;794;48.592;9.634;2023-02-15T11:22:21;15.00;1.00
1602;DHT22;794;48.592;9.634;2023-02-15T11:24:48;14.70;1.00
1602;DHT22;794;48.592;9.634;2023-02-15T11:27:20;14.60;1.00
1602;DHT22;794;48.592;9.634;2023-02-15T11:29:55;13.80;1.00
1602;DHT22;794;48.592;9.634;2023-02-15T11:32:26;13.50;1.00
1602;DHT22;794;48.592;9.634;2023-02-15T11:35:01;13.70;1.00
1602;DHT22;794;48.592;9.634;2023-02-15T11:37:33;13.20;1.00
1602;DHT22;794;48.592;9.634;2023-02-15T11:40:02;13.40;1.00
1602;DHT22;794;48.592;9.634;2023-02-15T11:42:31;13.10;1.00
1602;DHT22;794;48.592;9.634;2023-02-15T11:45:02;13.10;1.00
1602;DHT22;794;48.592;9.634;2023-02-15T11:47:31;12.70;1.00
1602;DHT22;794;48.592;9.634;2023-02-15T11:49:59;12.80;1.00
1602;DHT22;794;48.592;9.634;2023-02-15T11:52:26;12.90;1.00
1602;DHT22;794;48.592;9.634;2023-02-15T11:54:53;13.10;1.00
1602;DHT22;794;48.592;9.634;2023-02-15T11:57:27;13.00;1.00
1602;DHT22;794;48.592;9.634;2023-02-15T12:00:01;13.40;1.00
1602;DHT22;794;48.592;9.634;2023-02-15T12:02:31;13.10;1.00
1602;DHT22;794;48.592;9.634;2023-02-15T12:05:03;13.10;1.00
1602;DHT22;794;48.592;9.634;2023-02-15T12:07:35;13.00;1.00
1602;DHT22;794;48.592;9.634;2023-02-15T12:10:10;13.30;1.00
1602;DHT22;794;48.592;9.634;2023-02-15T12:12:43;13.20;1.00
1602;DHT22;794;48.592;9.634;2023-02-15T12:15:13;13.40;1.00
1602;DHT22;794;48.592;9.634;2023-02-15T12:17:47;13.80;1.00
1602;DHT22;794;48.592;9.634;2023-02-15T12:20:24;13.50;1.00
1602;DHT22;794;48.592;9.634;2023-02-15T12:22:54;13.20;1.00
1602;DHT22;794;48.592;9.634;2023-02-15T12:25:32;13.60;1.00
1602;DHT22;794;48.592;9.634;2023-02-15T12:28:00;13.50;1.00
1602;DHT22;794;48.592;9.634;2023-02-15T12:30:30;13.60;1.00
1602;DHT22;794;48.592;9.634;2023-02-15T12:33:05;13.60;1.00
1602;DHT22;794;48.592;9.634;2023-02-15T12:35:36;13.50;1.00
1602;DHT22;794;48.592;9.634;2023-02-15T12:38:19;14.20;1.00
1602;DHT22;794;48.592;9.634;2023-02-15T12:40:59;13.60;1.00
1602;DHT22;794;48.592;9.634;2023-02-15T12:43:30;13.40;1.00
1602;DHT22;794;48.592;9.634;2023-02-15T12:49:14;13.80;1.00
1602;DHT22;794;48.592;9.634;2023-02-15T12:51:44;13.60;1.00
1602;DHT22;794;48.592;9.634;2023-02-15T12:54:35;13.40;1.00
1602;DHT22;794;48.592;9.634;2023-02-15T12:57:21;13.10;1.00
1602;DHT22;794;48.592;9.634;2023-02-15T12:59:51;13.10;1.00
1602;DHT22;794;48.592;9.634;2023-02-15T13:02:23;13.40;1.00
1602;DHT22;794;48.592;9.634;2023-02-15T13:04:54;13.20;1.00
1602;DHT22;794;48.592;9.634;2023-02-15T13:07:22;13.40;1.00
1602;DHT22;794;48.592;9.634;2023-02-15T13:09:50;13.10;1.00
1602;DHT22;794;48.592;9.634;2023-02-15T13:12:20;13.60;1.00
1602;DHT22;794;48.592;9.634;2023-02-15T13:14:51;13.00;1.00
1602;DHT22;794;48.592;9.634;2023-02-15T13:17:23;13.10;1.00
1602;DHT22;794;48.592;9.634;2023-02-15T13:19:59;12.90;1.00
1602;DHT22;794;48.592;9.634;2023-02-15T13:22:31;13.00;1.00
1602;DHT22;794;48.592;9.634;2023-02-15T13:25:04;13.30;1.00
1602;DHT22;794;48.592;9.634;2023-02-15T13:27:38;13.00;1.00
1602;DHT22;794;48.592;9.634;2023-02-15T13:30:17;12.70;1.00
1602;DHT22;794;48.592;9.634;2023-02-15T13:32:49;12.80;1.00
1602;DHT22;794;48.592;9.634;2023-02-15T13:35:21;15.20;1.00
1602;DHT22;794;48.592;9.634;2023-02-15T13:38:01;12.40;1.00
1602;DHT22;794;48.592;9.634;2023-02-15T13:40:34;12.50;1.00
1602;DHT22;794;48.592;9.634;2023-02-15T13:43:10;12.10;1.00
1602;DHT22;794;48.592;9.634;2023-02-15T13:45:55;12.20;1.00
1602;DHT22;794;48.592;9.634;2023-02-15T13:48:33;11.90;1.00
1602;DHT22;794;48.592;9.634;2023-02-15T13:51:08;12.00;1.00
1602;DHT22;794;48.592;9.634;2023-02-15T13:54:03;11.80;1.00
1602;DHT22;794;48.592;9.634;2023-02-15T13:56:41;11.70;1.00
1602;DHT22;794;48.592;9.634;2023-02-15T14:02:30;11.70;1.00
1602;DHT22;794;48.592;9.634;2023-02-15T14:05:14;11.60;1.00
1602;DHT22;794;48.592;9.634;2023-02-15T14:07:56;11.90;1.00
1602;DHT22;794;48.592;9.634;2023-02-15T14:10:32;11.70;1.00
1602;DHT22;794;48.592;9.634;2023-02-15T14:13:17;11.50;1.00
1602;DHT22;794;48.592;9.634;2023-02-15T14:15:52;11.70;1.00
1602;DHT22;794;48.592;9.634;2023-02-15T14:18:27;11.70;1.00
1602;DHT22;794;48.592;9.634;2023-02-15T14:21:01;11.40;1.00
1602;DHT22;794;48.592;9.634;2023-02-15T14:23:40;11.40;1.00
1602;DHT22;794;48.592;9.634;2023-02-15T14:26:15;11.80;1.00
1602;DHT22;794;48.592;9.634;2023-02-15T14:28:53;11.50;1.00
1602;DHT22;794;48.592;9.634;2023-02-15T14:31:29;11.40;1.00
1602;DHT22;794;48.592;9.634;2023-02-15T14:33:58;11.30;1.00
1602;DHT22;794;48.592;9.634;2023-02-15T14:36:26;11.60;1.00
1602;DHT22;794;48.592;9.634;2023-02-15T14:39:02;11.60;1.00
1602;DHT22;794;48.592;9.634;2023-02-15T14:41:57;11.70;1.00
1602;DHT22;794;48.592;9.634;2023-02-15T14:44:32;11.80;1.00
1602;DHT22;794;48.592;9.634;2023-02-15T14:47:07;11.70;1.00
1602;DHT22;794;48.592;9.634;2023-02-15T14:49:38;11.70;1.00
1602;DHT22;794;48.592;9.634;2023-02-15T14:52:06;11.70;1.00
1602;DHT22;794;48.592;9.634;2023-02-15T14:54:57;11.60;1.00
1602;DHT22;794;48.592;9.634;2023-02-15T14:57:34;11.40;1.00
1602;DHT22;794;48.592;9.634;2023-02-15T15:00:30;11.50;1.00
1602;DHT22;794;48.592;9.634;2023-02-15T15:02:57;11.70;1.00
1602;DHT22;794;48.592;9.634;2023-02-15T15:05:31;11.90;1.00
1602;DHT22;794;48.592;9.634;2023-02-15T15:08:01;11.90;1.00
1602;DHT22;794;48.592;9.634;2023-02-15T15:10:42;11.80;1.00
1602;DHT22;794;48.592;9.634;2023-02-15T15:13:37;11.20;1.00
1602;DHT22;794;48.592;9.634;2023-02-15T15:16:28;11.00;1.00
1602;DHT22;794;48.592;9.634;2023-02-15T15:18:56;10.50;1.00
1602;DHT22;794;48.592;9.634;2023-02-15T15:21:51;10.00;1.00
1602;DHT22;794;48.592;9.634;2023-02-15T15:24:50;9.80;1.00
1602;DHT22;794;48.592;9.634;2023-02-15T15:30:48;9.40;1.00
1602;DHT22;794;48.592;9.634;2023-02-15T15:33:42;9.10;1.00
1602;DHT22;794;48.592;9.634;2023-02-15T15:36:41;9.00;1.00
1602;DHT22;794;48.592;9.634;2023-02-15T15:39:25;6.80;1.00
1602;DHT22;794;48.592;9.634;2023-02-15T15:42:01;8.70;1.00
1602;DHT22;794;48.592;9.634;2023-02-15T15:48:20;8.30;1.00
1602;DHT22;794;48.592;9.634;2023-02-15T15:50:52;8.10;1.00
1602;DHT22;794;48.592;9.634;2023-02-15T15:53:22;7.80;1.00
1602;DHT22;794;48.592;9.634;2023-02-15T15:55:53;7.60;1.00
1602;DHT22;794;48.592;9.634;2023-02-15T15:58:21;7.40;1.00
1602;DHT22;794;48.592;9.634;2023-02-15T16:00:50;7.20;1.00
1602;DHT22;794;48.592;9.634;2023-02-15T16:03:23;7.30;1.00
1602;DHT22;794;48.592;9.634;2023-02-15T16:05:50;7.10;1.00
1602;DHT22;794;48.592;9.634;2023-02-15T16:08:27;7.10;1.00
1602;DHT22;794;48.592;9.634;2023-02-15T16:15:51;6.60;1.00
1602;DHT22;794;48.592;9.634;2023-02-15T16:18:22;6.70;1.00
1602;DHT22;794;48.592;9.634;2023-02-15T16:20:52;6.30;1.00
1602;DHT22;794;48.592;9.634;2023-02-15T16:23:41;6.20;1.00
1602;DHT22;794;48.592;9.634;2023-02-15T16:26:18;6.20;1.00
1602;DHT22;794;48.592;9.634;2023-02-15T16:28:50;6.10;1.00
1602;DHT22;794;48.592;9.634;2023-02-15T16:31:19;6.10;1.00
1602;DHT22;794;48.592;9.634;2023-02-15T16:33:53;5.70;1.00
1602;DHT22;794;48.592;9.634;2023-02-15T16:36:22;5.60;1.00
1602;DHT22;794;48.592;9.634;2023-02-15T16:39:16;5.90;1.00
1602;DHT22;794;48.592;9.634;2023-02-15T16:41:44;5.90;1.00
1602;DHT22;794;48.592;9.634;2023-02-15T16:44:16;5.20;1.00
1602;DHT22;794;48.592;9.634;2023-02-15T16:46:46;5.60;1.00
1602;DHT22;794;48.592;9.634;2023-02-15T16:49:17;5.40;1.00
1602;DHT22;794;48.592;9.634;2023-02-15T16:51:54;5.20;1.00
1602;DHT22;794;48.592;9.634;2023-02-15T16:54:23;5.30;1.00
1602;DHT22;794;48.592;9.634;2023-02-15T16:56:51;5.20;1.00
1602;DHT22;794;48.592;9.634;2023-02-15T16:59:31;4.60;1.00
1602;DHT22;794;48.592;9.634;2023-02-15T17:01:59;6.30;1.00
1602;DHT22;794;48.592;9.634;2023-02-15T17:04:29;2.30;1.00
1602;DHT22;794;48.592;9.634;2023-02-15T17:06:59;4.70;1.00
1602;DHT22;794;48.592;9.634;2023-02-15T17:09:27;4.50;1.00
1602;DHT22;794;48.592;9.634;2023-02-15T17:11:54;4.50;1.00
1602;DHT22;794;48.592;9.634;2023-02-15T17:14:21;4.60;1.00
1602;DHT22;794;48.592;9.634;2023-02-15T17:16:54;5.30;1.00
1602;DHT22;794;48.592;9.634;2023-02-15T17:19:28;4.30;1.00
1602;DHT22;794;48.592;9.634;2023-02-15T17:21:58;5.30;1.00
1602;DHT22;794;48.592;9.634;2023-02-15T17:24:38;4.10;1.00
1602;DHT22;794;48.592;9.634;2023-02-15T17:27:11;3.80;1.00
1602;DHT22;794;48.592;9.634;2023-02-15T17:29:40;3.90;1.00
1602;DHT22;794;48.592;9.634;2023-02-15T17:32:15;3.90;1.00
1602;DHT22;794;48.592;9.634;2023-02-15T17:34:49;3.50;1.00
1602;DHT22;794;48.592;9.634;2023-02-15T17:37:25;4.20;1.00
1602;DHT22;794;48.592;9.634;2023-02-15T17:39:52;5.40;1.00
1602;DHT22;794;48.592;9.634;2023-02-15T17:42:19;4.00;1.00
1602;DHT22;794;48.592;9.634;2023-02-15T17:44:46;3.20;1.00
1602;DHT22;794;48.592;9.634;2023-02-15T17:47:16;4.10;1.00
1602;DHT22;794;48.592;9.634;2023-02-15T17:49:45;3.20;1.00
1602;DHT22;794;48.592;9.634;2023-02-15T17:52:15;4.80;1.00
1602;DHT22;794;48.592;9.634;2023-02-15T17:54:43;3.30;1.00
1602;DHT22;794;48.592;9.634;2023-02-15T17:57:28;3.20;1.00
1602;DHT22;794;48.592;9.634;2023-02-15T17:59:55;2.90;1.00
1602;DHT22;794;48.592;9.634;2023-02-15T18:02:40;3.70;1.00
1602;DHT22;794;48.592;9.634;2023-02-15T18:05:26;3.00;1.00
1602;DHT22;794;48.592;9.634;2023-02-15T18:08:12;3.00;1.00
1602;DHT22;794;48.592;9.634;2023-02-15T18:10:57;3.10;1.00
1602;DHT22;794;48.592;9.634;2023-02-15T18:13:41;4.80;1.00
1602;DHT22;794;48.592;9.634;2023-02-15T18:16:13;2.70;1.00
1602;DHT22;794;48.592;9.634;2023-02-15T18:18:41;4.70;1.00
1602;DHT22;794;48.592;9.634;2023-02-15T18:21:10;2.50;1.00
1602;DHT22;794;48.592;9.634;2023-02-15T18:23:37;4.70;1.00
1602;DHT22;794;48.592;9.634;2023-02-15T18:26:05;3.70;1.00
1602;DHT22;794;48.592;9.634;2023-02-15T18:28:32;2.40;1.00
1602;DHT22;794;48.592;9.634;2023-02-15T18:30:59;3.60;1.00
1602;DHT22;794;48.592;9.634;2023-02-15T18:33:33;3.60;1.00
1602;DHT22;794;48.592;9.634;2023-02-15T18:36:02;3.90;1.00
1602;DHT22;794;48.592;9.634;2023-02-15T18:38:31;2.60;1.00
1602;DHT22;794;48.592;9.634;2023-02-15T18:40:59;3.80;1.00
1602;DHT22;794;48.592;9.634;2023-02-15T18:43:27;2.90;1.00
1602;DHT22;794;48.592;9.634;2023-02-15T18:45:54;3.60;1.00
1602;DHT22;794;48.592;9.634;2023-02-15T18:48:21;2.30;1.00
1602;DHT22;794;48.592;9.634;2023-02-15T18:50:49;3.60;1.00
1602;DHT22;794;48.592;9.634;2023-02-15T18:53:18;2.30;1.00
1602;DHT22;794;48.592;9.634;2023-02-15T18:55:47;2.30;1.00
1602;DHT22;794;48.592;9.634;2023-02-15T18:58:16;2.00;1.00
1602;DHT22;794;48.592;9.634;2023-02-15T19:00:43;3.30;1.00
1602;DHT22;794;48.592;9.634;2023-02-15T19:03:12;2.50;1.00
1602;DHT22;794;48.592;9.634;2023-02-15T19:05:41;3.40;1.00
1602;DHT22;794;48.592;9.634;2023-02-15T19:08:16;2.20;1.00
1602;DHT22;794;48.592;9.634;2023-02-15T19:10:44;0.40;1.00
1602;DHT22;794;48.592;9.634;2023-02-15T19:13:13;2.90;1.00
1602;DHT22;794;48.592;9.634;2023-02-15T19:15:42;1.90;1.00
1602;DHT22;794;48.592;9.634;2023-02-15T19:18:09;3.20;1.00
1602;DHT22;794;48.592;9.634;2023-02-15T19:20:38;3.00;1.00
1602;DHT22;794;48.592;9.634;2023-02-15T19:23:12;3.90;1.00
1602;DHT22;794;48.592;9.634;2023-02-15T19:25:42;1.70;1.00
1602;DHT22;794;48.592;9.634;2023-02-15T19:28:16;3.90;1.00
1602;DHT22;794;48.592;9.634;2023-02-15T19:30:45;1.90;1.00
1602;DHT22;794;48.592;9.634;2023-02-15T19:33:16;1.80;1.00
1602;DHT22;794;48.592;9.634;2023-02-15T19:35:45;2.10;1.00
1602;DHT22;794;48.592;9.634;2023-02-15T19:38:17;1.90;1.00
1602;DHT22;794;48.592;9.634;2023-02-15T19:40:44;3.40;1.00
1602;DHT22;794;48.592;9.634;2023-02-15T19:43:16;3.70;1.00
1602;DHT22;794;48.592;9.634;2023-02-15T19:45:44;1.90;1.00
1602;DHT22;794;48.592;9.634;2023-02-15T19:48:12;1.60;1.00
1602;DHT22;794;48.592;9.634;2023-02-15T19:50:40;1.60;1.00
1602;DHT22;794;48.592;9.634;2023-02-15T19:53:21;1.50;1.00
1602;DHT22;794;48.592;9.634;2023-02-15T19:55:49;1.70;1.00
1602;DHT22;794;48.592;9.634;2023-02-15T19:58:18;1.70;1.00
1602;DHT22;794;48.592;9.634;2023-02-15T20:00:46;3.20;1.00
1602;DHT22;794;48.592;9.634;2023-02-15T20:03:14;2.70;1.00
1602;DHT22;794;48.592;9.634;2023-02-15T20:05:42;2.40;1.00
1602;DHT22;794;48.592;9.634;2023-02-15T20:08:15;1.30;1.00
1602;DHT22;794;48.592;9.634;2023-02-15T20:10:43;3.10;1.00
1602;DHT22;794;48.592;9.634;2023-02-15T20:13:12;2.50;1.00
1602;DHT22;794;48.592;9.634;2023-02-15T20:15:42;1.20;1.00
1602;DHT22;794;48.592;9.634;2023-02-15T20:18:09;2.70;1.00
1602;DHT22;794;48.592;9.634;2023-02-15T20:20:40;2.00;1.00
1602;DHT22;794;48.592;9.634;2023-02-15T20:23:17;1.40;1.00